Terminal Aerodrome Forecast
Issued by NWS Cleveland, OH

Home | Current Version | Previous Version | Graphics & Text | Print | Product List | Glossary On
Versions: 1 2 3 4 5 6 7 8 9 10 11 12 13 14 15 16 17 18 19
000
FTUS41 KCLE 220536
TAFYNG
TAF
KYNG 220536Z 2206/2306 16006KT P6SM OVC050
      TEMPO 2206/2208 3SM SHRA OVC025
     FM220800 16005KT 4SM BR OVC025
      TEMPO 2209/2213 2SM BR BKN010
     FM221500 12005KT P6SM BKN035
     FM221800 08005KT P6SM BKN050
     FM230000 06010KT P6SM -SHRA OVC025=

USA.gov is the U.S. government's official web portal to all federal, state and local government web resources and services.